createdAt,value
2023-02-02T02:07:46.548Z,536.00
2023-02-02T02:08:46.524Z,536.00
2023-02-02T02:09:46.488Z,538.00
2023-02-02T02:10:46.472Z,534.00
2023-02-02T02:11:46.425Z,536.00
2023-02-02T02:12:46.406Z,530.00
2023-02-02T02:13:46.388Z,535.00
2023-02-02T02:14:46.354Z,531.00
2023-02-02T02:15:46.644Z,537.00
2023-02-02T02:16:46.321Z,533.00
2023-02-02T02:17:46.259Z,539.00
2023-02-02T02:18:46.283Z,536.00
2023-02-02T02:19:46.212Z,537.00
2023-02-02T02:20:46.178Z,538.00
2023-02-02T02:21:46.146Z,537.00
2023-02-02T02:22:46.124Z,536.00
2023-02-02T02:23:46.090Z,540.00
2023-02-02T02:24:46.120Z,535.00
2023-02-02T02:25:46.022Z,541.00
2023-02-02T02:26:46.082Z,541.00
2023-02-02T02:27:45.958Z,540.00
2023-02-02T02:28:45.924Z,538.00
2023-02-02T02:29:45.896Z,536.00
2023-02-02T02:30:45.930Z,537.00
2023-02-02T02:31:45.931Z,537.00
2023-02-02T02:32:45.853Z,539.00
2023-02-02T02:33:46.639Z,538.00
2023-02-02T02:34:45.677Z,541.00
2023-02-02T02:35:45.645Z,541.00
2023-02-02T02:36:45.600Z,539.00
2023-02-02T02:37:45.560Z,540.00
2023-02-02T02:38:45.511Z,538.00
2023-02-02T02:39:45.473Z,536.00
2023-02-02T02:40:45.426Z,543.00
2023-02-02T02:41:45.365Z,542.00
2023-02-02T02:42:45.381Z,542.00
2023-02-02T02:43:45.261Z,543.00
2023-02-02T02:44:45.217Z,541.00
2023-02-02T02:45:45.183Z,536.00
2023-02-02T02:46:45.105Z,541.00
2023-02-02T02:47:45.060Z,538.00
2023-02-02T02:48:45.011Z,542.00
2023-02-02T02:49:44.948Z,542.00
2023-02-02T02:50:44.898Z,538.00
2023-02-02T02:51:44.849Z,545.00
2023-02-02T02:52:44.810Z,538.00
2023-02-02T02:53:44.730Z,543.00
2023-02-02T02:54:44.675Z,538.00
2023-02-02T02:55:44.617Z,541.00
2023-02-02T02:56:44.558Z,542.00
2023-02-02T02:57:44.499Z,547.00
2023-02-02T03:34:42.568Z,545.00
2023-02-02T03:35:42.527Z,542.00
2023-02-02T03:36:42.498Z,542.00
2023-02-02T03:37:42.463Z,543.00
2023-02-02T03:38:42.414Z,538.00
2023-02-02T03:39:42.387Z,542.00
2023-02-02T03:40:42.494Z,544.00
2023-02-02T03:41:42.360Z,537.00
2023-02-02T03:42:42.340Z,533.00
2023-02-02T03:43:42.442Z,541.00
2023-02-02T03:45:42.276Z,546.00
2023-02-02T03:46:42.287Z,536.00
2023-02-02T03:47:42.247Z,538.00
2023-02-02T03:48:42.213Z,541.00
2023-02-02T03:49:42.192Z,545.00
2023-02-02T03:50:42.247Z,542.00
2023-02-02T03:51:42.668Z,543.00
2023-02-02T03:52:42.143Z,531.00
2023-02-02T03:53:42.137Z,537.00
2023-02-02T03:54:42.151Z,535.00
2023-02-02T03:55:42.220Z,540.00
2023-02-02T03:56:42.108Z,544.00
2023-02-02T03:57:42.102Z,532.00
2023-02-02T03:58:42.075Z,540.00
2023-02-02T03:59:42.021Z,545.00
2023-02-02T04:00:41.995Z,538.00
2023-02-02T04:01:42.015Z,537.00
2023-02-02T04:02:41.979Z,540.00
2023-02-02T04:03:41.973Z,536.00
2023-02-02T04:04:41.967Z,538.00
2023-02-02T04:05:41.966Z,529.00
2023-02-02T04:06:41.965Z,536.00
2023-02-02T04:07:41.953Z,538.00
2023-02-02T04:08:41.945Z,541.00
2023-02-02T04:09:41.954Z,541.00
2023-02-02T04:10:42.007Z,533.00
2023-02-02T04:11:41.920Z,541.00
2023-02-02T04:12:41.912Z,532.00
2023-02-02T04:13:41.888Z,535.00
2023-02-02T04:14:41.879Z,541.00
2023-02-02T04:15:41.857Z,538.00
2023-02-02T04:16:41.880Z,536.00
2023-02-02T04:17:41.824Z,538.00
2023-02-02T04:18:41.796Z,537.00
2023-02-02T04:19:41.793Z,533.00
2023-02-02T04:20:41.760Z,538.00
2023-02-02T04:21:41.747Z,535.00
2023-02-02T04:22:41.705Z,537.00
2023-02-02T04:23:41.689Z,542.00
2023-02-02T04:24:41.675Z,537.00
2023-02-02T04:25:41.667Z,537.00
2023-02-02T04:26:41.716Z,539.00
2023-02-02T04:27:41.676Z,536.00
2023-02-02T04:28:41.649Z,534.00
2023-02-02T04:29:41.654Z,530.00
2023-02-02T04:30:41.684Z,534.00
2023-02-02T04:31:41.640Z,539.00
2023-02-02T04:32:41.597Z,537.00
2023-02-02T05:06:41.166Z,532.00
2023-02-02T05:07:41.157Z,530.00
2023-02-02T05:08:41.130Z,532.00
2023-02-02T05:09:41.093Z,529.00
2023-02-02T05:10:41.692Z,535.00
2023-02-02T05:11:41.055Z,535.00
2023-02-02T07:06:38.294Z,1213.00
2023-02-02T07:11:40.758Z,1300.00
2023-02-02T07:16:37.610Z,1368.00
2023-02-02T07:17:37.591Z,1380.00
2023-02-02T07:18:37.447Z,1400.00
2023-02-02T07:19:37.426Z,1392.00
2023-02-02T07:20:37.304Z,1388.00
2023-02-02T07:21:37.218Z,1416.00
2023-02-02T07:22:37.127Z,1401.00
2023-02-02T07:23:37.111Z,1412.00
2023-02-02T07:24:36.959Z,1426.00
2023-02-02T07:25:36.891Z,1417.00
2023-02-02T07:26:36.873Z,1415.00
2023-02-02T07:27:36.712Z,1456.00
2023-02-02T07:28:36.636Z,1471.00
2023-02-02T07:29:36.560Z,1466.00
2023-02-02T07:30:36.500Z,1442.00
2023-02-02T07:31:37.041Z,1456.00
2023-02-02T07:32:36.323Z,1680.00
2023-02-02T07:33:36.223Z,1540.00
2023-02-02T07:34:36.139Z,1522.00
2023-02-02T07:35:36.057Z,1618.00
2023-02-02T07:36:36.003Z,1577.00
2023-02-02T07:37:37.518Z,1612.00
2023-02-02T07:38:35.810Z,1637.00
2023-02-02T07:39:35.719Z,1632.00
2023-02-02T07:40:35.643Z,1619.00
2023-02-02T07:41:35.554Z,1616.00
2023-02-02T07:42:35.477Z,1617.00
2023-02-02T07:43:35.427Z,1621.00
2023-02-02T07:44:35.314Z,1625.00
2023-02-02T07:45:35.234Z,1635.00
2023-02-02T07:46:35.643Z,1646.00
2023-02-02T07:47:35.089Z,1671.00
2023-02-02T07:48:35.000Z,1653.00
2023-02-02T07:49:34.923Z,1672.00
2023-02-02T07:50:34.832Z,1711.00
2023-02-02T07:51:35.375Z,1705.00
2023-02-02T07:52:34.683Z,1716.00
2023-02-02T07:53:34.603Z,1723.00
2023-02-02T07:54:34.524Z,1728.00
2023-02-02T11:17:25.787Z,1241.00
2023-02-02T11:27:25.561Z,1195.00
2023-02-02T11:28:25.550Z,1191.00
2023-02-02T11:29:25.525Z,1183.00
2023-02-02T11:30:25.832Z,1184.00
2023-02-02T11:32:25.407Z,1186.00
2023-02-02T11:33:25.361Z,1170.00
2023-02-02T11:35:25.353Z,1175.00
2023-02-02T11:36:25.244Z,1171.00
2023-02-02T11:37:25.208Z,1175.00
2023-02-02T11:38:25.197Z,1157.00
2023-02-02T11:39:25.110Z,1153.00
2023-02-02T11:40:25.419Z,1154.00
2023-02-02T11:41:24.948Z,1152.00
2023-02-02T11:42:24.858Z,1154.00
2023-02-02T11:43:24.781Z,1153.00
2023-02-02T11:44:24.711Z,1139.00
2023-02-02T11:45:24.628Z,1130.00
2023-02-02T11:46:24.890Z,1128.00
2023-02-02T11:51:25.035Z,1114.00
2023-02-02T11:53:25.005Z,1094.00
2023-02-02T12:55:19.555Z,934.00
2023-02-02T13:00:19.106Z,935.00
2023-02-02T13:01:19.218Z,922.00
2023-02-02T13:02:19.047Z,930.00
2023-02-02T13:03:18.894Z,937.00
2023-02-02T13:04:18.824Z,932.00
2023-02-02T13:05:18.753Z,940.00
2023-02-02T13:06:18.680Z,934.00
2023-02-02T13:07:18.647Z,935.00
2023-02-02T13:08:18.527Z,932.00
2023-02-02T13:09:20.033Z,932.00
2023-02-02T13:10:18.391Z,926.00
2023-02-02T13:11:18.325Z,930.00
2023-02-02T13:12:18.320Z,920.00
2023-02-02T13:13:18.217Z,927.00
2023-02-02T13:14:18.137Z,915.00
2023-02-02T13:15:18.049Z,912.00
2023-02-02T13:16:18.021Z,921.00
2023-02-02T13:17:17.894Z,907.00
2023-02-02T13:18:17.831Z,901.00
2023-02-02T13:19:17.775Z,901.00
2023-02-02T13:20:17.698Z,897.00
2023-02-02T13:21:17.648Z,902.00
2023-02-02T13:22:17.575Z,898.00
2023-02-02T13:23:17.503Z,906.00
2023-02-02T13:24:17.440Z,905.00
2023-02-02T13:25:18.365Z,890.00
2023-02-02T13:26:17.363Z,896.00
2023-02-02T13:27:17.270Z,893.00
2023-02-02T13:28:17.178Z,890.00
2023-02-02T13:29:17.145Z,883.00
2023-02-02T13:30:17.046Z,879.00
2023-02-02T13:31:17.082Z,881.00
2023-02-02T13:32:16.913Z,876.00
2023-02-02T13:33:16.882Z,868.00
2023-02-02T13:34:16.783Z,866.00
2023-02-02T13:35:17.720Z,867.00
2023-02-02T13:36:16.625Z,869.00
2023-02-02T13:37:17.429Z,867.00
2023-02-02T13:38:16.481Z,870.00
2023-02-02T13:39:16.402Z,868.00
2023-02-02T13:40:16.296Z,857.00
2023-02-02T13:41:16.210Z,861.00
2023-02-02T13:42:16.130Z,853.00
2023-02-02T13:43:16.052Z,860.00
2023-02-02T13:44:16.012Z,863.00
2023-02-02T13:45:15.905Z,857.00
2023-02-02T13:46:16.030Z,852.00
2023-02-02T13:47:15.731Z,857.00
2023-02-02T13:48:15.639Z,842.00
2023-02-02T13:49:16.381Z,842.00
2023-02-02T13:50:15.468Z,834.00
2023-02-02T13:51:15.388Z,851.00
2023-02-02T13:52:15.299Z,844.00
2023-02-02T13:53:15.216Z,844.00
2023-02-02T13:54:15.138Z,834.00
2023-02-02T13:55:15.043Z,845.00
2023-02-02T13:56:15.200Z,834.00
2023-02-02T13:57:14.880Z,840.00
2023-02-02T13:58:14.792Z,832.00
2023-02-02T13:59:14.706Z,808.00
2023-02-02T14:00:14.628Z,813.00
2023-02-02T14:01:14.571Z,825.00
2023-02-02T14:02:14.529Z,825.00
2023-02-02T14:03:14.367Z,823.00
2023-02-02T14:04:14.287Z,821.00
2023-02-02T14:05:14.945Z,819.00
2023-02-02T14:06:14.159Z,820.00
2023-02-02T14:07:14.388Z,815.00
2023-02-02T14:08:14.042Z,802.00
2023-02-02T14:09:13.959Z,810.00
2023-02-02T14:10:13.933Z,807.00
2023-02-02T14:11:13.839Z,814.00
2023-02-02T14:12:13.785Z,811.00
2023-02-02T14:13:13.709Z,806.00
2023-02-02T14:14:13.714Z,816.00
2023-02-02T14:15:13.594Z,807.00
2023-02-02T14:16:13.552Z,801.00
2023-02-02T14:17:13.494Z,797.00
2023-02-02T14:18:13.422Z,801.00
2023-02-02T14:19:13.373Z,789.00
2023-02-02T14:20:13.310Z,785.00
2023-02-02T14:21:13.319Z,785.00
2023-02-02T14:22:13.218Z,789.00
2023-02-02T14:23:13.154Z,782.00
2023-02-02T14:24:13.104Z,777.00
2023-02-02T14:25:13.050Z,795.00
2023-02-02T14:26:13.153Z,759.00
2023-02-02T14:27:13.171Z,763.00
2023-02-02T14:28:13.022Z,784.00
2023-02-02T14:29:12.856Z,782.00
2023-02-02T14:30:12.820Z,774.00
2023-02-02T14:31:12.963Z,782.00
2023-02-02T14:33:12.692Z,778.00
2023-02-02T14:34:12.630Z,766.00
2023-02-02T17:19:09.101Z,759.00
2023-02-02T17:20:09.017Z,749.00
2023-02-02T17:21:08.975Z,753.00
2023-02-02T17:22:08.919Z,759.00
2023-02-02T17:23:08.908Z,758.00
2023-02-02T17:24:08.890Z,755.00
2023-02-02T17:25:08.869Z,738.00
2023-02-02T17:48:08.245Z,692.00
2023-02-02T17:49:08.110Z,708.00
2023-02-02T17:50:08.071Z,702.00
2023-02-02T17:51:08.063Z,698.00
2023-02-02T17:52:08.022Z,693.00
2023-02-02T17:53:07.992Z,697.00
2023-02-02T17:54:07.948Z,684.00
2023-02-02T17:55:07.933Z,694.00
2023-02-02T17:56:07.928Z,688.00
2023-02-02T17:57:07.925Z,670.00
2023-02-02T17:58:07.915Z,692.00
2023-02-02T17:59:07.882Z,677.00
2023-02-02T18:00:07.849Z,666.00
2023-02-02T18:01:08.494Z,674.00
2023-02-02T18:02:07.827Z,683.00
2023-02-02T18:03:07.856Z,676.00
2023-02-02T18:04:07.733Z,675.00
2023-02-02T18:05:07.691Z,664.00
2023-02-02T18:06:07.695Z,666.00
2023-02-02T18:07:07.667Z,671.00
2023-02-02T18:08:07.657Z,660.00
2023-02-02T18:09:07.643Z,662.00
2023-02-02T18:10:07.611Z,662.00
2023-02-02T18:11:07.577Z,672.00
2023-02-02T18:12:07.537Z,661.00
2023-02-02T18:13:07.488Z,668.00
2023-02-02T18:14:07.416Z,670.00
2023-02-02T18:15:07.384Z,658.00
2023-02-02T18:16:07.402Z,660.00
2023-02-02T18:17:07.341Z,656.00
2023-02-02T18:18:07.284Z,659.00
2023-02-02T18:19:07.317Z,660.00
2023-02-02T18:20:07.200Z,653.00
2023-02-02T18:21:07.124Z,659.00
2023-02-02T18:22:07.061Z,657.00
2023-02-02T18:23:07.019Z,656.00
2023-02-02T18:24:06.994Z,655.00
2023-02-02T18:25:06.947Z,651.00
2023-02-02T18:26:06.894Z,655.00
2023-02-02T18:27:06.863Z,648.00
2023-02-02T18:28:06.815Z,653.00
2023-02-02T18:29:06.776Z,650.00
2023-02-02T18:30:06.739Z,648.00
2023-02-02T18:31:06.779Z,645.00
2023-02-02T18:32:06.708Z,649.00
2023-02-02T18:33:06.658Z,650.00
2023-02-02T18:34:06.744Z,646.00
2023-02-02T18:35:06.614Z,642.00
2023-02-02T18:36:06.575Z,643.00
2023-02-02T18:37:06.534Z,648.00
2023-02-02T18:38:06.476Z,642.00
2023-02-02T18:39:06.426Z,646.00
2023-02-02T18:40:07.838Z,645.00
2023-02-02T18:41:06.295Z,644.00
2023-02-02T18:42:06.225Z,644.00
2023-02-02T18:43:06.163Z,640.00
2023-02-02T18:44:06.149Z,641.00
2023-02-02T18:45:06.076Z,642.00
2023-02-02T18:46:06.052Z,639.00
2023-02-02T18:47:06.009Z,638.00
2023-02-02T18:48:05.945Z,638.00
2023-02-02T18:49:05.885Z,636.00
2023-02-02T18:50:05.809Z,636.00
2023-02-02T18:51:05.750Z,635.00
2023-02-02T18:52:06.472Z,635.00
2023-02-02T18:53:05.691Z,633.00
2023-02-02T18:54:05.614Z,635.00
2023-02-02T18:55:05.556Z,634.00
2023-02-02T18:56:05.501Z,631.00
2023-02-02T18:57:05.434Z,632.00
2023-02-02T18:58:05.382Z,628.00
2023-02-02T18:59:05.296Z,630.00
2023-02-02T19:00:05.352Z,626.00
2023-02-02T19:01:07.296Z,629.00
2023-02-02T19:02:05.211Z,630.00
2023-02-02T19:03:05.068Z,631.00
2023-02-02T19:04:05.049Z,626.00
2023-02-02T19:05:04.951Z,628.00
2023-02-02T19:06:04.879Z,626.00
2023-02-02T19:07:04.808Z,622.00
2023-02-02T19:08:04.743Z,627.00
2023-02-02T19:09:04.669Z,622.00
2023-02-02T19:10:04.612Z,630.00
2023-02-02T19:11:04.535Z,620.00
2023-02-02T19:12:04.453Z,623.00
2023-02-02T19:13:04.390Z,624.00
2023-02-02T19:14:04.319Z,619.00
2023-02-02T19:15:04.248Z,624.00
2023-02-02T19:16:04.205Z,615.00
2023-02-02T19:17:05.108Z,616.00
2023-02-02T19:18:04.993Z,616.00
2023-02-02T19:19:03.950Z,616.00
2023-02-02T19:20:03.892Z,617.00
2023-02-02T19:21:03.805Z,617.00
2023-02-02T19:22:03.721Z,617.00
2023-02-02T19:23:03.644Z,619.00
2023-02-02T19:24:03.572Z,616.00
2023-02-02T19:25:03.500Z,616.00
2023-02-02T19:26:03.983Z,609.00
2023-02-02T21:05:56.599Z,549.00
2023-02-02T21:06:56.547Z,546.00
2023-02-02T21:07:56.476Z,546.00
2023-02-02T21:08:56.401Z,544.00
2023-02-02T21:09:56.351Z,547.00
2023-02-02T21:10:56.278Z,541.00
2023-02-02T21:11:56.206Z,546.00
2023-02-02T21:12:56.188Z,544.00
2023-02-02T21:13:56.072Z,546.00
2023-02-02T21:14:56.527Z,545.00
2023-02-02T21:15:55.940Z,545.00
2023-02-02T21:17:09.020Z,544.00
2023-02-02T21:17:56.809Z,544.00
2023-02-02T21:18:55.713Z,544.00
2023-02-02T21:19:55.657Z,544.00
2023-02-02T21:20:55.600Z,544.00
2023-02-02T21:21:55.509Z,545.00
2023-02-02T21:22:55.435Z,540.00
2023-02-02T21:23:55.382Z,539.00
2023-02-02T21:24:55.279Z,535.00
2023-02-02T21:25:55.213Z,539.00
2023-02-02T21:26:55.154Z,536.00
2023-02-02T21:27:55.075Z,536.00
2023-02-02T21:28:55.531Z,533.00
2023-02-02T21:29:54.935Z,534.00
2023-02-02T21:30:55.029Z,534.00
2023-02-02T21:31:54.910Z,529.00
2023-02-02T21:32:54.783Z,530.00
2023-02-02T21:33:54.656Z,532.00
2023-02-02T21:34:54.566Z,525.00
2023-02-02T21:35:54.505Z,527.00
2023-02-02T21:36:54.433Z,526.00
2023-02-02T21:37:54.363Z,526.00
2023-02-02T21:38:54.307Z,531.00
2023-02-02T21:39:55.020Z,527.00
2023-02-02T21:40:55.041Z,528.00
2023-02-02T21:41:54.097Z,525.00
2023-02-02T21:42:54.020Z,527.00
2023-02-02T21:43:53.945Z,524.00
2023-02-02T21:44:53.957Z,521.00
2023-02-02T21:45:53.907Z,522.00
2023-02-02T21:46:53.733Z,525.00
2023-02-02T21:47:53.651Z,519.00
2023-02-02T21:48:53.582Z,520.00
2023-02-02T21:49:53.500Z,518.00
2023-02-02T21:50:53.432Z,515.00
2023-02-02T22:36:50.692Z,505.00
2023-02-02T22:37:50.600Z,503.00
2023-02-02T22:38:50.543Z,506.00
2023-02-02T22:39:50.488Z,508.00
